Αρχική σελίδα
METAR-TAF:

METAR-TAF

Αεροδρόμια :

Kake, Αλάσκα, Ηνωμένες Πολιτείες Αμερικής

γεωγραφικό πλάτος: 56-57N, γεωγραφικό μήκος: 133-54W, υψόμετρο: 52 μ

Παρών καιρός

Η αναφορά έγινε 1 ώρα και 22 λεπτά πριν, στις 18:56 UTC
Άνεμος 3 kt από Δ/ΝΔ
Θερμοκρασία 12°C
Υγρασία 71%
Πίεση 1008 hPa
Ορατότητα: 16.1 χλμ
Λίγα νέφη σε ύψος 8000 πόδια
Αρκετά νέφη σε ύψος 10000 πόδια

METAR: PAFE 191856Z AUTO 24003KT 10SM FEW080 BKN100 12/07 A2977 RMK AO2 SLP095 T01170072 $

Χρόνος: 12:18 (20:18 UTC)


TAF: λείπει

Μετεωρολογικές αναφορές και προγνώσεις για περισσότερα από 4000 αεροδρόμια (δελτία METAR και TAF).

Οι διαθέσιμοι σταθμοί απεικονίζονται στο χάρτη με κίτρινες και κόκκινες κουκκίδες.

Μετακινήστε το ποντίκι πάνω από τις κουκκίδες για να δείτε το όνομα του σταθμού.

Στη συνέχεια, κάντε κλικ για να δείτε τις μετεωρολογικές αναφορές και τις προγνώσεις καιρού.

Για να αλλάξετε το χάρτη: κάντε κλικ στα πράσινα κουμπιά με τον μαύρο σταυρό για να ζουμάρετε, στο πράσινο κουμπί με την παύλα για να αφαιρέσετε το ζουμ ή στα πράσινα βέλη για να αντιπαραβάλλετε χάρτες.


METAR-TAF: